createdAt,value
2018-09-21T00:01:32.941Z,20.00
2018-09-21T00:04:00.398Z,20.00
2018-09-21T00:06:27.862Z,20.00
2018-09-21T00:08:55.327Z,20.00
2018-09-21T00:11:22.777Z,19.90
2018-09-21T00:13:50.224Z,19.90
2018-09-21T00:16:17.701Z,19.90
2018-09-21T00:18:45.136Z,19.90
2018-09-21T00:21:13.365Z,19.80
2018-09-21T00:23:40.817Z,19.80
2018-09-21T00:26:08.293Z,19.90
2018-09-21T00:28:35.741Z,19.80
2018-09-21T00:31:03.197Z,19.80
2018-09-21T00:33:30.755Z,19.90
2018-09-21T00:35:58.194Z,19.80
2018-09-21T00:38:26.407Z,19.80
2018-09-21T00:40:54.602Z,19.80
2018-09-21T00:43:22.056Z,19.80
2018-09-21T00:45:49.497Z,19.80
2018-09-21T00:48:17.720Z,19.70
2018-09-21T00:50:45.178Z,19.70
2018-09-21T00:53:12.845Z,19.70
2018-09-21T00:55:40.306Z,19.70
2018-09-21T00:58:07.749Z,19.70
2018-09-21T01:00:35.209Z,19.70
2018-09-21T01:03:02.663Z,19.70
2018-09-21T01:05:30.130Z,19.70
2018-09-21T01:07:57.588Z,19.60
2018-09-21T01:10:25.047Z,19.60
2018-09-21T01:12:52.513Z,19.60
2018-09-21T01:15:19.990Z,19.60
2018-09-21T01:17:47.436Z,19.60
2018-09-21T01:20:14.899Z,19.60
2018-09-21T01:22:42.341Z,19.60
2018-09-21T01:25:10.577Z,19.60
2018-09-21T01:27:38.057Z,19.50
2018-09-21T01:30:05.522Z,19.60
2018-09-21T01:32:32.982Z,19.60
2018-09-21T01:35:00.416Z,19.60
2018-09-21T01:37:27.856Z,19.60
2018-09-21T01:39:55.312Z,19.60
2018-09-21T01:42:22.773Z,19.60
2018-09-21T01:44:50.245Z,19.60
2018-09-21T01:47:17.711Z,19.60
2018-09-21T01:49:45.173Z,19.60
2018-09-21T01:52:24.469Z,19.60
2018-09-21T01:54:52.686Z,19.60
2018-09-21T01:57:20.146Z,19.60
2018-09-21T01:59:47.594Z,19.60
2018-09-21T02:02:15.215Z,19.60
2018-09-21T02:04:42.659Z,19.60
2018-09-21T02:07:10.115Z,19.60
2018-09-21T02:09:40.444Z,19.60
2018-09-21T02:12:08.636Z,19.60
2018-09-21T02:14:44.152Z,19.60
2018-09-21T02:17:11.591Z,19.60
2018-09-21T02:19:39.813Z,19.60
2018-09-21T02:22:07.269Z,19.50
2018-09-21T02:24:34.733Z,19.60
2018-09-21T02:27:02.197Z,19.60
2018-09-21T02:29:29.933Z,19.50
2018-09-21T02:31:58.149Z,19.50
2018-09-21T02:34:26.406Z,19.40
2018-09-21T02:36:53.893Z,19.50
2018-09-21T02:39:21.358Z,19.40
2018-09-21T02:41:48.832Z,19.40
2018-09-21T02:44:16.281Z,19.50
2018-09-21T02:46:43.727Z,19.50
2018-09-21T02:49:11.182Z,19.40
2018-09-21T02:51:38.638Z,19.40
2018-09-21T02:54:06.102Z,19.50
2018-09-21T02:56:33.553Z,19.40
2018-09-21T02:59:01.796Z,19.40
2018-09-21T03:01:29.242Z,19.40
2018-09-21T03:03:56.688Z,19.40
2018-09-21T03:06:24.137Z,19.40
2018-09-21T03:08:52.351Z,19.30
2018-09-21T03:11:19.813Z,19.30
2018-09-21T03:13:47.454Z,19.30
2018-09-21T03:16:14.914Z,19.30
2018-09-21T03:18:43.122Z,19.40
2018-09-21T03:21:10.590Z,19.30
2018-09-21T03:23:38.029Z,19.30
2018-09-21T03:26:05.493Z,19.30
2018-09-21T03:28:33.620Z,19.40
2018-09-21T03:31:01.066Z,19.30
2018-09-21T03:33:28.534Z,19.40
2018-09-21T03:35:55.994Z,19.30
2018-09-21T03:38:23.465Z,19.30
2018-09-21T03:40:50.917Z,19.40
2018-09-21T03:43:18.356Z,19.40
2018-09-21T03:45:45.955Z,19.40
2018-09-21T03:48:13.411Z,19.40
2018-09-21T03:50:40.858Z,19.40
2018-09-21T03:53:08.309Z,19.30
2018-09-21T03:55:35.755Z,19.40
2018-09-21T03:58:03.236Z,19.30
2018-09-21T04:00:30.681Z,19.40
2018-09-21T04:02:58.165Z,19.30
2018-09-21T04:05:25.616Z,19.30
2018-09-21T04:07:53.061Z,19.30
2018-09-21T04:10:20.505Z,19.30
2018-09-21T04:12:48.729Z,19.20
2018-09-21T04:15:16.176Z,19.20
2018-09-21T04:17:43.624Z,19.20
2018-09-21T04:20:11.070Z,19.20
2018-09-21T04:22:39.301Z,19.20
2018-09-21T04:25:06.768Z,19.20
2018-09-21T04:27:34.238Z,19.20
2018-09-21T04:30:01.693Z,19.20
2018-09-21T04:32:29.149Z,19.20
2018-09-21T04:34:56.609Z,19.20
2018-09-21T04:37:24.065Z,19.20
2018-09-21T04:39:51.525Z,19.20
2018-09-21T04:42:18.989Z,19.20
2018-09-21T04:44:46.433Z,19.20
2018-09-21T04:47:13.881Z,19.20
2018-09-21T04:49:42.106Z,19.10
2018-09-21T04:52:10.689Z,19.10
2018-09-21T04:54:38.157Z,19.00
2018-09-21T04:57:05.625Z,18.90
2018-09-21T04:59:34.432Z,18.50
2018-09-21T05:02:03.032Z,18.30
2018-09-21T05:04:30.490Z,18.30
2018-09-21T05:06:58.161Z,18.20
2018-09-21T05:09:25.610Z,18.20
2018-09-21T05:11:53.053Z,18.10
2018-09-21T05:14:20.707Z,17.90
2018-09-21T05:16:48.149Z,17.80
2018-09-21T05:19:16.357Z,17.80
2018-09-21T05:21:43.813Z,17.80
2018-09-21T05:24:12.418Z,17.70
2018-09-21T05:26:39.864Z,17.60
2018-09-21T05:29:08.817Z,17.60
2018-09-21T05:31:37.428Z,17.60
2018-09-21T05:34:05.823Z,17.60
2018-09-21T05:36:34.012Z,17.50
2018-09-21T05:39:01.451Z,17.50
2018-09-21T05:41:29.884Z,17.50
2018-09-21T05:43:57.332Z,17.50
2018-09-21T05:46:24.785Z,17.60
2018-09-21T05:48:52.253Z,17.60
2018-09-21T05:51:19.694Z,17.60
2018-09-21T05:53:47.153Z,17.70
2018-09-21T05:56:15.466Z,17.80
2018-09-21T05:58:42.843Z,17.70
2018-09-21T06:01:10.289Z,17.70
2018-09-21T06:06:06.550Z,17.00
2018-09-21T06:08:33.993Z,16.80
2018-09-21T06:11:02.617Z,16.60
2018-09-21T06:13:30.077Z,16.50
2018-09-21T06:15:57.510Z,16.50
2018-09-21T06:18:24.966Z,16.60
2018-09-21T06:20:52.424Z,16.70
2018-09-21T06:23:20.766Z,16.70
2018-09-21T06:25:48.221Z,16.60
2018-09-21T06:28:15.678Z,16.60
2018-09-21T06:30:43.142Z,16.50
2018-09-21T06:33:10.593Z,16.50
2018-09-21T06:35:38.061Z,16.60
2018-09-21T06:38:05.518Z,16.50
2018-09-21T06:40:32.961Z,16.60
2018-09-21T06:43:00.460Z,16.60
2018-09-21T06:45:27.879Z,16.50
2018-09-21T06:47:55.328Z,16.50
2018-09-21T06:50:23.546Z,16.60
2018-09-21T06:52:51.114Z,16.60
2018-09-21T06:55:18.557Z,16.60
2018-09-21T06:57:46.324Z,16.60
2018-09-21T07:00:13.768Z,16.60
2018-09-21T07:02:41.223Z,16.40
2018-09-21T07:05:09.460Z,16.30
2018-09-21T07:07:36.909Z,16.40
2018-09-21T07:10:04.447Z,16.40
2018-09-21T07:12:32.029Z,16.40
2018-09-21T07:14:59.513Z,16.40
2018-09-21T07:17:26.964Z,16.30
2018-09-21T07:19:54.645Z,16.40
2018-09-21T07:22:22.081Z,16.30
2018-09-21T07:24:49.537Z,16.40
2018-09-21T07:27:17.021Z,16.30
2018-09-21T07:29:44.466Z,16.40
2018-09-21T07:32:12.387Z,16.40
2018-09-21T07:34:39.849Z,16.30
2018-09-21T07:37:07.353Z,16.30
2018-09-21T07:39:34.810Z,16.40
2018-09-21T07:42:03.416Z,17.10
2018-09-21T07:44:30.922Z,17.10
2018-09-21T07:46:58.335Z,17.40
2018-09-21T07:49:25.785Z,17.60
2018-09-21T07:51:54.017Z,17.30
2018-09-21T07:54:22.643Z,17.00
2018-09-21T07:56:50.061Z,17.00
2018-09-21T07:59:17.521Z,16.80
2018-09-21T08:01:44.963Z,16.60
2018-09-21T08:04:12.410Z,16.30
2018-09-21T08:06:39.869Z,16.10
2018-09-21T08:09:08.444Z,15.80
2018-09-21T08:11:36.661Z,15.80
2018-09-21T08:14:04.117Z,15.70
2018-09-21T08:16:31.583Z,15.70
2018-09-21T08:18:59.103Z,16.00
2018-09-21T08:21:26.556Z,15.90
2018-09-21T08:23:54.010Z,15.80
2018-09-21T08:26:21.483Z,15.90
2018-09-21T08:28:48.957Z,16.00
2018-09-21T08:31:17.234Z,15.90
2018-09-21T08:33:44.721Z,15.90
2018-09-21T08:38:41.011Z,15.60
2018-09-21T08:41:08.621Z,15.60
2018-09-21T08:43:36.081Z,15.70
2018-09-21T08:46:03.536Z,15.60
2018-09-21T08:48:30.977Z,15.60
2018-09-21T08:50:58.425Z,15.60
2018-09-21T08:53:25.874Z,15.60
2018-09-21T08:55:53.337Z,15.90
2018-09-21T08:58:20.804Z,15.70
2018-09-21T09:00:48.261Z,15.80
2018-09-21T09:03:15.954Z,15.80
2018-09-21T09:05:43.302Z,15.70
2018-09-21T09:08:10.754Z,15.60
2018-09-21T09:10:38.220Z,16.00
2018-09-21T09:13:05.650Z,16.10
2018-09-21T09:15:33.867Z,15.90
2018-09-21T09:18:01.307Z,15.90
2018-09-21T09:20:28.768Z,16.00
2018-09-21T09:22:56.224Z,15.90
2018-09-21T09:25:24.458Z,15.80
2018-09-21T09:27:51.909Z,15.80
2018-09-21T09:30:19.379Z,15.60
2018-09-21T09:32:46.958Z,15.50
2018-09-21T09:35:14.417Z,15.60
2018-09-21T09:37:41.854Z,15.50
2018-09-21T09:40:09.316Z,15.70
2018-09-21T09:42:36.764Z,16.10
2018-09-21T09:45:10.090Z,16.10
2018-09-21T09:47:37.537Z,15.80
2018-09-21T09:50:05.045Z,15.90
2018-09-21T09:52:32.489Z,15.90
2018-09-21T09:55:00.705Z,15.80
2018-09-21T09:57:28.933Z,15.80
2018-09-21T09:59:56.391Z,15.80
2018-09-21T10:02:23.878Z,15.60
2018-09-21T10:04:51.344Z,15.60
2018-09-21T10:07:18.800Z,15.60
2018-09-21T10:09:46.241Z,16.00
2018-09-21T10:12:13.710Z,16.00
2018-09-21T10:14:41.141Z,15.90
2018-09-21T10:17:08.607Z,15.90
2018-09-21T10:19:36.264Z,16.10
2018-09-21T10:22:04.482Z,16.00
2018-09-21T10:24:31.927Z,15.90
2018-09-21T10:26:59.438Z,15.90
2018-09-21T10:29:26.821Z,15.90
2018-09-21T10:31:55.050Z,16.30
2018-09-21T10:34:22.497Z,16.30
2018-09-21T10:36:49.965Z,16.50
2018-09-21T10:39:18.609Z,17.50
2018-09-21T10:41:46.717Z,17.70
2018-09-21T10:44:14.172Z,17.70
2018-09-21T10:49:10.765Z,17.10
2018-09-21T10:51:38.213Z,17.30
2018-09-21T10:54:05.661Z,17.40
2018-09-21T10:56:33.121Z,17.30
2018-09-21T10:59:00.570Z,17.00
2018-09-21T11:01:28.785Z,16.60
2018-09-21T11:03:56.376Z,16.60
2018-09-21T11:06:23.828Z,16.80
2018-09-21T11:08:51.269Z,17.30
2018-09-21T11:11:18.731Z,17.40
2018-09-21T11:13:46.174Z,17.10
2018-09-21T11:16:14.389Z,17.30
2018-09-21T11:18:41.840Z,17.30
2018-09-21T11:21:09.300Z,17.00
2018-09-21T11:23:36.862Z,16.90
2018-09-21T11:26:04.292Z,16.90
2018-09-21T11:28:32.507Z,17.30
2018-09-21T11:30:59.972Z,17.20
2018-09-21T11:33:27.565Z,17.20
2018-09-21T11:35:55.017Z,17.00
2018-09-21T11:38:22.477Z,17.40
2018-09-21T11:40:50.184Z,17.50
2018-09-21T11:43:18.745Z,17.70
2018-09-21T11:45:46.535Z,17.70
2018-09-21T11:48:14.114Z,17.70
2018-09-21T11:50:41.551Z,17.40
2018-09-21T11:53:10.136Z,17.20
2018-09-21T11:55:38.616Z,17.10
2018-09-21T11:58:06.069Z,16.80
2018-09-21T12:00:33.519Z,16.40
2018-09-21T12:03:01.232Z,16.90
2018-09-21T12:05:28.668Z,16.90
2018-09-21T12:07:56.146Z,17.00
2018-09-21T12:10:23.606Z,17.20
2018-09-21T12:12:52.178Z,17.10
2018-09-21T12:15:19.621Z,17.10
2018-09-21T12:17:47.172Z,17.20
2018-09-21T12:20:14.610Z,17.40
2018-09-21T12:22:42.084Z,17.70
2018-09-21T12:25:09.815Z,17.30
2018-09-21T12:27:37.266Z,17.20
2018-09-21T12:30:04.717Z,17.10
2018-09-21T12:32:32.167Z,17.10
2018-09-21T12:34:59.614Z,16.80
2018-09-21T12:37:27.828Z,16.70
2018-09-21T12:39:55.272Z,16.70
2018-09-21T12:42:22.717Z,17.20
2018-09-21T12:44:50.933Z,17.30
2018-09-21T12:47:18.397Z,17.30
2018-09-21T12:49:45.852Z,17.30
2018-09-21T12:52:13.310Z,17.20
2018-09-21T12:54:40.995Z,16.90
2018-09-21T12:57:08.450Z,17.10
2018-09-21T12:59:35.898Z,16.90
2018-09-21T13:02:03.398Z,16.80
2018-09-21T13:04:30.850Z,17.20
2018-09-21T13:06:59.426Z,17.40
2018-09-21T13:09:26.889Z,17.30
2018-09-21T13:11:54.348Z,17.20
2018-09-21T13:14:21.857Z,17.20
2018-09-21T13:16:49.257Z,17.00
2018-09-21T13:19:16.719Z,17.10
2018-09-21T13:21:44.429Z,17.20
2018-09-21T13:24:11.878Z,17.30
2018-09-21T13:26:39.330Z,17.30
2018-09-21T13:29:07.487Z,17.20
2018-09-21T13:31:34.925Z,17.20
2018-09-21T13:34:03.805Z,17.00
2018-09-21T13:36:31.265Z,16.90
2018-09-21T13:38:58.709Z,17.10
2018-09-21T13:41:26.202Z,17.00
2018-09-21T13:43:54.521Z,16.90
2018-09-21T13:46:21.965Z,16.90
2018-09-21T13:48:49.409Z,16.80
2018-09-21T13:51:17.621Z,16.90
2018-09-21T13:53:45.061Z,16.90
2018-09-21T13:56:13.292Z,17.30
2018-09-21T13:58:40.748Z,17.30
2018-09-21T14:01:08.191Z,17.60
2018-09-21T14:03:35.633Z,17.60
2018-09-21T14:06:04.576Z,17.30
2018-09-21T14:08:32.024Z,17.30
2018-09-21T14:10:59.461Z,17.40
2018-09-21T14:13:27.120Z,17.00
2018-09-21T14:15:56.260Z,17.00
2018-09-21T14:18:23.718Z,17.00
2018-09-21T14:20:51.186Z,16.80
2018-09-21T14:23:18.652Z,16.60
2018-09-21T14:25:47.233Z,16.60
2018-09-21T14:28:14.889Z,16.60
2018-09-21T14:30:42.354Z,16.90
2018-09-21T14:33:09.798Z,16.80
2018-09-21T14:35:38.022Z,16.80
2018-09-21T14:38:05.473Z,16.80
2018-09-21T14:40:32.909Z,17.00
2018-09-21T14:43:00.487Z,17.00
2018-09-21T14:45:28.686Z,17.00
2018-09-21T14:47:57.311Z,16.90
2018-09-21T14:50:24.729Z,16.90
2018-09-21T14:52:52.184Z,16.90
2018-09-21T14:55:19.617Z,16.90
2018-09-21T14:57:47.979Z,16.90
2018-09-21T15:00:15.426Z,16.90
2018-09-21T15:02:42.872Z,16.90
2018-09-21T15:05:10.332Z,16.70
2018-09-21T15:07:37.783Z,16.70
2018-09-21T15:10:05.646Z,16.80
2018-09-21T15:12:33.108Z,16.80
2018-09-21T15:15:00.557Z,16.60
2018-09-21T15:17:28.772Z,16.70
2018-09-21T15:19:56.216Z,16.70
2018-09-21T15:22:23.695Z,16.80
2018-09-21T15:24:51.125Z,16.70
2018-09-21T15:27:18.577Z,16.70
2018-09-21T15:29:46.791Z,16.60
2018-09-21T15:32:14.270Z,16.60
2018-09-21T15:34:41.710Z,16.70
2018-09-21T15:37:09.157Z,16.50
2018-09-21T15:39:36.602Z,16.40
2018-09-21T15:42:04.821Z,16.60
2018-09-21T15:44:32.280Z,16.60
2018-09-21T15:46:59.728Z,16.50
2018-09-21T15:49:27.928Z,16.50
2018-09-21T15:51:55.389Z,16.60
2018-09-21T15:54:22.847Z,16.60
2018-09-21T15:56:50.302Z,16.50
2018-09-21T15:59:17.755Z,16.40
2018-09-21T16:01:45.196Z,16.50
2018-09-21T16:04:13.409Z,16.40
2018-09-21T16:06:40.878Z,16.40
2018-09-21T16:09:08.348Z,16.50
2018-09-21T16:11:36.940Z,15.50
2018-09-21T16:14:04.384Z,15.40
2018-09-21T16:16:31.847Z,15.20
2018-09-21T16:18:59.281Z,14.90
2018-09-21T16:21:27.488Z,14.80
2018-09-21T16:23:54.941Z,14.80
2018-09-21T16:26:22.385Z,14.90
2018-09-21T16:28:50.613Z,14.80
2018-09-21T16:31:18.746Z,14.80
2018-09-21T16:33:46.950Z,14.90
2018-09-21T16:36:14.388Z,14.90
2018-09-21T16:38:42.597Z,14.90
2018-09-21T16:41:10.040Z,14.90
2018-09-21T16:43:38.270Z,14.90
2018-09-21T16:46:05.714Z,14.90
2018-09-21T16:48:33.160Z,15.20
2018-09-21T16:51:00.629Z,15.00
2018-09-21T16:53:28.825Z,15.20
2018-09-21T16:55:56.266Z,15.20
2018-09-21T16:58:23.713Z,15.20
2018-09-21T17:00:51.153Z,15.30
2018-09-21T17:03:18.640Z,15.30
2018-09-21T17:05:46.045Z,15.40
2018-09-21T17:08:13.492Z,15.30
2018-09-21T17:10:40.929Z,15.10
2018-09-21T17:13:08.405Z,14.70
2018-09-21T17:15:35.885Z,13.90
2018-09-21T17:18:03.362Z,13.70
2018-09-21T17:20:30.817Z,13.30
2018-09-21T17:22:58.306Z,13.20
2018-09-21T17:25:25.750Z,12.80
2018-09-21T17:27:53.421Z,12.50
2018-09-21T17:30:20.869Z,12.40
2018-09-21T17:32:48.310Z,12.40
2018-09-21T17:35:15.775Z,12.60
2018-09-21T17:37:43.260Z,12.50
2018-09-21T17:40:11.457Z,12.50
2018-09-21T17:42:38.909Z,12.50
2018-09-21T17:45:07.123Z,12.70
2018-09-21T17:47:34.572Z,12.70
2018-09-21T17:50:02.041Z,13.00
2018-09-21T17:52:29.551Z,13.00
2018-09-21T17:54:56.949Z,13.00
2018-09-21T17:57:24.381Z,13.20
2018-09-21T17:59:51.829Z,13.20
2018-09-21T18:02:19.440Z,13.30
2018-09-21T18:04:48.032Z,13.40
2018-09-21T18:07:15.550Z,13.40
2018-09-21T18:09:44.080Z,13.70
2018-09-21T18:12:11.539Z,13.70
2018-09-21T18:14:38.958Z,13.70
2018-09-21T18:17:06.425Z,13.60
2018-09-21T18:19:33.865Z,13.80
2018-09-21T18:22:02.085Z,13.70
2018-09-21T18:24:32.414Z,13.70
2018-09-21T18:26:59.871Z,13.70
2018-09-21T18:29:27.342Z,13.60
2018-09-21T18:31:54.908Z,13.60
2018-09-21T18:34:22.352Z,13.80
2018-09-21T18:36:49.792Z,13.60
2018-09-21T18:39:18.021Z,13.60
2018-09-21T18:41:46.227Z,13.70
2018-09-21T18:44:13.667Z,13.70
2018-09-21T18:46:41.105Z,13.80
2018-09-21T18:49:08.554Z,13.80
2018-09-21T18:51:36.000Z,13.90
2018-09-21T18:54:04.368Z,14.10
2018-09-21T18:56:31.826Z,14.10
2018-09-21T18:58:59.337Z,14.10
2018-09-21T19:01:26.769Z,14.30
2018-09-21T19:03:55.022Z,14.30
2018-09-21T19:06:22.438Z,14.30
2018-09-21T19:08:49.886Z,14.00
2018-09-21T19:11:18.189Z,14.00
2018-09-21T19:13:45.619Z,14.00
2018-09-21T19:16:13.828Z,14.10
2018-09-21T19:18:41.265Z,14.10
2018-09-21T19:21:09.996Z,14.30
2018-09-21T19:23:38.585Z,14.40
2018-09-21T19:26:06.036Z,14.30
2018-09-21T19:28:33.492Z,14.40
2018-09-21T19:31:00.928Z,14.00
2018-09-21T19:33:29.149Z,13.80
2018-09-21T19:35:56.589Z,13.80
2018-09-21T19:38:24.024Z,14.00
2018-09-21T19:40:51.480Z,14.20
2018-09-21T19:43:18.904Z,14.20
2018-09-21T19:45:46.562Z,14.20
2018-09-21T19:48:14.006Z,14.30
2018-09-21T19:50:41.476Z,14.40
2018-09-21T19:53:08.974Z,14.30
2018-09-21T19:55:36.376Z,14.40
2018-09-21T19:58:04.588Z,14.40
2018-09-21T20:00:32.176Z,14.40
2018-09-21T20:02:59.620Z,14.40
2018-09-21T20:05:27.064Z,14.50
2018-09-21T20:07:54.557Z,14.30
2018-09-21T20:10:22.009Z,14.30
2018-09-21T20:12:49.460Z,14.40
2018-09-21T20:15:16.912Z,14.50
2018-09-21T20:17:44.353Z,14.40
2018-09-21T20:20:12.784Z,14.50
2018-09-21T20:22:40.229Z,14.50
2018-09-21T20:25:07.691Z,14.60
2018-09-21T20:27:35.125Z,14.70
2018-09-21T20:30:03.366Z,14.50
2018-09-21T20:32:46.607Z,14.50
2018-09-21T20:35:14.048Z,14.50
2018-09-21T20:37:41.494Z,14.30
2018-09-21T20:40:08.937Z,14.30
2018-09-21T20:42:36.409Z,14.30
2018-09-21T20:45:03.842Z,14.30
2018-09-21T20:47:32.051Z,14.40
2018-09-21T20:49:59.498Z,14.40
2018-09-21T20:52:26.941Z,14.30
2018-09-21T20:54:54.386Z,14.40
2018-09-21T20:57:21.978Z,14.40
2018-09-21T20:59:50.189Z,14.40
2018-09-21T21:02:17.630Z,14.40
2018-09-21T21:04:45.343Z,14.40
2018-09-21T21:07:12.774Z,14.40
2018-09-21T21:09:40.217Z,14.50
2018-09-21T21:12:08.429Z,14.50
2018-09-21T21:14:35.899Z,14.40
2018-09-21T21:17:03.340Z,14.40
2018-09-21T21:19:30.774Z,14.50
2018-09-21T21:21:58.984Z,14.40
2018-09-21T21:24:26.420Z,14.40
2018-09-21T21:26:54.633Z,14.30
2018-09-21T21:29:22.089Z,14.30
2018-09-21T21:31:49.518Z,14.30
2018-09-21T21:34:17.745Z,14.30
2018-09-21T21:36:45.180Z,14.30
2018-09-21T21:39:13.390Z,14.30
2018-09-21T21:41:41.053Z,14.30
2018-09-21T21:44:08.493Z,14.30
2018-09-21T21:46:35.933Z,14.20
2018-09-21T21:49:04.157Z,14.20
2018-09-21T21:51:31.593Z,14.20
2018-09-21T21:53:59.072Z,14.20
2018-09-21T21:56:26.522Z,14.10
2018-09-21T21:58:53.948Z,14.10
2018-09-21T22:01:21.407Z,14.00
2018-09-21T22:03:48.852Z,14.00
2018-09-21T22:06:16.309Z,14.10
2018-09-21T22:08:43.753Z,14.10
2018-09-21T22:11:11.205Z,14.10
2018-09-21T22:13:58.467Z,14.00
2018-09-21T22:16:25.897Z,13.90
2018-09-21T22:18:53.342Z,13.90
2018-09-21T22:21:20.781Z,13.90
2018-09-21T22:23:49.012Z,13.90
2018-09-21T22:26:16.451Z,13.90
2018-09-21T22:28:43.898Z,14.00
2018-09-21T22:31:12.327Z,13.90
2018-09-21T22:33:39.767Z,13.90
2018-09-21T22:36:07.209Z,13.90
2018-09-21T22:38:34.653Z,13.90
2018-09-21T22:41:02.863Z,13.80
2018-09-21T22:43:30.300Z,13.80
2018-09-21T22:45:58.507Z,13.90
2018-09-21T22:48:25.952Z,13.80
2018-09-21T22:50:54.162Z,13.80
2018-09-21T22:53:21.593Z,13.80
2018-09-21T22:55:49.804Z,13.80
2018-09-21T22:58:17.265Z,13.80
2018-09-21T23:00:44.752Z,13.70
2018-09-21T23:03:12.191Z,13.80
2018-09-21T23:05:39.646Z,13.80
2018-09-21T23:08:07.091Z,13.70
2018-09-21T23:10:35.283Z,13.80
2018-09-21T23:13:02.729Z,13.80
2018-09-21T23:15:30.944Z,13.80
2018-09-21T23:17:58.373Z,13.70
2018-09-21T23:20:26.582Z,13.80
2018-09-21T23:22:54.014Z,13.70
2018-09-21T23:25:22.214Z,13.80
2018-09-21T23:27:49.660Z,13.80
2018-09-21T23:30:17.094Z,13.70
2018-09-21T23:32:44.727Z,13.70
2018-09-21T23:35:12.167Z,13.80
2018-09-21T23:37:39.604Z,13.80
2018-09-21T23:40:07.817Z,13.80
2018-09-21T23:42:35.269Z,13.80
2018-09-21T23:45:02.707Z,13.80
2018-09-21T23:47:30.924Z,13.80
2018-09-21T23:49:58.374Z,13.80
2018-09-21T23:52:25.825Z,13.70
2018-09-21T23:54:53.270Z,13.80
2018-09-21T23:57:21.477Z,13.80
2018-09-21T23:59:48.920Z,13.80
